createdAt,value
2022-08-03T00:03:52.823Z,2.80
2022-08-03T00:06:42.708Z,2.90
2022-08-03T00:09:35.847Z,3.10
2022-08-03T00:12:21.962Z,2.97
2022-08-03T00:15:16.303Z,2.80
2022-08-03T00:18:02.517Z,2.70
2022-08-03T00:23:51.753Z,3.10
2022-08-03T00:26:29.296Z,2.83
2022-08-03T00:32:05.938Z,2.90
2022-08-03T00:37:42.859Z,2.43
2022-08-03T00:43:12.310Z,3.00
2022-08-03T00:48:48.527Z,2.77
2022-08-03T00:51:37.770Z,2.90
2022-08-03T00:57:17.162Z,3.00
2022-08-03T01:00:18.625Z,2.73
2022-08-03T01:05:59.335Z,2.80
2022-08-03T01:11:33.230Z,2.97
2022-08-03T01:17:29.480Z,2.63
2022-08-03T01:20:19.449Z,2.50
2022-08-03T01:23:22.771Z,2.97
2022-08-03T01:29:13.451Z,2.50
2022-08-03T01:34:47.342Z,2.83
2022-08-03T01:37:39.744Z,2.93
2022-08-03T01:43:55.161Z,3.00
2022-08-03T01:49:00.840Z,2.73
2022-08-03T01:54:40.868Z,2.80
2022-08-03T01:57:30.839Z,3.27
2022-08-03T02:03:10.978Z,2.77
2022-08-03T02:06:56.804Z,3.07
2022-08-03T02:11:37.459Z,3.10
2022-08-03T02:14:27.053Z,3.40
2022-08-03T02:17:16.496Z,3.03
2022-08-03T02:20:05.766Z,3.23
2022-08-03T02:22:54.517Z,3.20
2022-08-03T02:28:33.259Z,3.47
2022-08-03T02:34:15.428Z,3.30
2022-08-03T02:37:06.519Z,3.10
2022-08-03T02:42:44.755Z,3.00
2022-08-03T02:45:36.628Z,3.23
2022-08-03T02:48:28.248Z,3.07
2022-08-03T02:51:18.017Z,3.03
2022-08-03T02:54:08.128Z,3.07
2022-08-03T02:56:58.396Z,3.20
2022-08-03T03:02:39.860Z,3.17
2022-08-03T03:05:55.516Z,3.23
2022-08-03T03:08:26.825Z,3.20
2022-08-03T03:14:02.512Z,3.23
2022-08-03T03:16:52.600Z,3.40
2022-08-03T03:19:45.282Z,3.27
2022-08-03T03:22:35.947Z,3.40
2022-08-03T03:25:24.120Z,3.23
2022-08-03T03:31:01.555Z,3.40
2022-08-03T03:36:36.404Z,4.30
2022-08-03T03:39:24.957Z,3.30
2022-08-03T03:45:01.725Z,3.30
2022-08-03T03:47:50.590Z,3.40
2022-08-03T03:50:40.790Z,3.50
2022-08-03T03:53:29.309Z,3.10
2022-08-03T03:56:17.649Z,3.20
2022-08-03T04:01:58.999Z,3.23
2022-08-03T04:07:52.190Z,3.20
2022-08-03T04:13:33.073Z,3.00
2022-08-03T04:22:00.490Z,3.30
2022-08-03T04:27:39.557Z,3.37
2022-08-03T04:30:29.224Z,3.30
2022-08-03T04:36:10.734Z,3.30
2022-08-03T04:39:04.046Z,3.30
2022-08-03T04:44:46.792Z,3.37
2022-08-03T04:47:35.734Z,3.03
2022-08-03T04:50:24.745Z,3.30
2022-08-03T04:56:06.838Z,3.67
2022-08-03T04:58:55.783Z,3.80
2022-08-03T05:01:44.911Z,3.80
2022-08-03T05:07:24.824Z,3.30
2022-08-03T05:10:15.822Z,3.60
2022-08-03T05:15:50.849Z,3.00
2022-08-03T05:21:26.802Z,3.40
2022-08-03T05:24:19.859Z,3.30
2022-08-03T05:27:09.029Z,3.30
2022-08-03T05:32:46.165Z,3.50
2022-08-03T05:38:28.303Z,3.37
2022-08-03T05:41:20.962Z,3.00
2022-08-03T05:44:04.926Z,3.40
2022-08-03T05:49:40.004Z,3.50
2022-08-03T05:52:28.414Z,3.20
2022-08-03T05:55:20.876Z,2.80
2022-08-03T06:00:49.706Z,2.70
2022-08-03T06:03:38.260Z,2.93
2022-08-03T06:06:30.526Z,3.10
2022-08-03T06:09:16.939Z,3.60
2022-08-03T06:12:06.170Z,3.30
2022-08-03T06:14:54.507Z,3.60
2022-08-03T06:20:29.179Z,3.10
2022-08-03T06:23:18.610Z,3.30
2022-08-03T06:26:07.980Z,2.83
2022-08-03T06:31:38.373Z,3.70
2022-08-03T06:34:34.182Z,3.80
2022-08-03T06:40:08.986Z,3.57
2022-08-03T06:42:59.640Z,3.30
2022-08-03T06:45:48.169Z,3.10
2022-08-03T06:51:23.625Z,3.80
2022-08-03T06:54:13.902Z,3.87
2022-08-03T07:00:08.708Z,3.50
2022-08-03T07:02:31.633Z,3.27
2022-08-03T07:08:08.092Z,3.40
2022-08-03T07:13:42.078Z,3.40
2022-08-03T07:16:31.287Z,3.53
2022-08-03T07:22:08.709Z,3.77
2022-08-03T07:25:00.993Z,3.63
2022-08-03T07:30:35.870Z,3.63
2022-08-03T07:36:10.818Z,4.50
2022-08-03T07:41:38.481Z,3.87
2022-08-03T07:44:28.318Z,3.80
2022-08-03T07:47:22.485Z,3.67
2022-08-03T07:52:55.223Z,4.53
2022-08-03T07:55:43.583Z,3.73
2022-08-03T08:01:22.720Z,3.50
2022-08-03T08:04:12.114Z,3.70
2022-08-03T08:07:00.552Z,3.80
2022-08-03T08:12:41.275Z,3.27
2022-08-03T08:15:30.334Z,3.30
2022-08-03T08:18:19.814Z,3.17
2022-08-03T08:21:08.722Z,4.27
2022-08-03T08:23:58.102Z,3.60
2022-08-03T08:26:46.479Z,3.53
2022-08-03T08:29:35.172Z,3.60
2022-08-03T08:32:25.666Z,3.40
2022-08-03T08:35:14.934Z,3.50
2022-08-03T08:38:05.717Z,2.77
2022-08-03T08:40:55.420Z,3.23
2022-08-03T08:43:44.420Z,3.53
2022-08-03T08:46:34.331Z,3.10
2022-08-03T08:52:32.036Z,3.73
2022-08-03T08:55:23.500Z,3.23
2022-08-03T08:58:13.644Z,3.40
2022-08-03T09:03:51.617Z,3.30
2022-08-03T09:10:10.875Z,2.97
2022-08-03T09:12:40.597Z,2.87
2022-08-03T09:15:20.350Z,3.50
2022-08-03T09:18:12.355Z,3.30
2022-08-03T09:24:31.229Z,3.00
2022-08-03T09:29:56.686Z,2.73
2022-08-03T09:41:20.134Z,3.30
2022-08-03T09:46:57.036Z,2.77
2022-08-03T09:52:49.304Z,3.10
2022-08-03T09:58:09.562Z,2.87
2022-08-03T10:04:04.311Z,2.83
2022-08-03T10:09:28.680Z,2.50
2022-08-03T10:15:05.805Z,3.10
2022-08-03T10:20:38.121Z,2.47
2022-08-03T10:23:31.833Z,2.73
2022-08-03T10:29:12.356Z,2.77
2022-08-03T10:34:44.545Z,2.80
2022-08-03T10:37:33.452Z,3.00
2022-08-03T10:43:28.863Z,2.50
2022-08-03T10:49:05.821Z,2.60
2022-08-03T10:51:54.548Z,2.83
2022-08-03T10:55:03.341Z,2.60
2022-08-03T10:57:58.647Z,2.70
2022-08-03T11:04:04.820Z,2.80
2022-08-03T11:07:10.136Z,2.42
2022-08-03T11:12:44.844Z,2.37
2022-08-03T11:18:22.911Z,2.50
2022-08-03T11:24:05.073Z,2.70
2022-08-03T11:29:42.098Z,2.30
2022-08-03T11:33:13.079Z,2.10
2022-08-03T11:36:02.739Z,2.47
2022-08-03T11:42:24.570Z,2.20
2022-08-03T11:47:52.628Z,2.17
2022-08-03T11:50:41.293Z,2.20
2022-08-03T11:53:29.714Z,2.35
2022-08-03T11:59:20.750Z,2.45
2022-08-03T12:04:52.863Z,2.30
2022-08-03T12:10:32.433Z,1.95
2022-08-03T12:16:05.108Z,2.00
2022-08-03T12:18:57.961Z,2.22
2022-08-03T12:21:57.235Z,2.00
2022-08-03T12:27:33.340Z,2.42
2022-08-03T12:33:24.285Z,2.33
2022-08-03T12:36:12.938Z,2.35
2022-08-03T12:41:47.061Z,2.00
2022-08-03T12:44:36.783Z,2.05
2022-08-03T12:50:16.439Z,2.20
2022-08-03T12:56:05.099Z,2.10
2022-08-03T12:58:48.255Z,2.10
2022-08-03T13:01:55.211Z,2.42
2022-08-03T13:04:33.226Z,2.20
2022-08-03T13:07:23.033Z,2.10
2022-08-03T13:10:11.987Z,2.17
2022-08-03T13:15:38.755Z,2.15
2022-08-03T13:18:28.076Z,2.30
2022-08-03T13:24:04.294Z,1.92
2022-08-03T13:29:40.336Z,2.20
2022-08-03T13:35:16.660Z,1.90
2022-08-03T13:38:04.938Z,2.00
2022-08-03T13:43:40.720Z,2.02
2022-08-03T13:46:29.317Z,2.00
2022-08-03T13:52:06.365Z,1.50
2022-08-03T13:58:02.560Z,1.30
2022-08-03T14:03:24.182Z,1.30
2022-08-03T14:09:00.667Z,1.42
2022-08-03T14:12:08.203Z,1.40
2022-08-03T14:17:30.108Z,1.32
2022-08-03T14:20:36.498Z,1.37
2022-08-03T14:25:59.593Z,1.45
2022-08-03T14:28:48.281Z,1.30
2022-08-03T14:32:09.440Z,1.52
2022-08-03T14:34:27.379Z,1.22
2022-08-03T14:37:16.270Z,1.35
2022-08-03T14:40:05.488Z,1.50
2022-08-03T14:46:06.812Z,1.50
2022-08-03T14:50:32.447Z,1.50
2022-08-03T14:54:35.665Z,1.60
2022-08-03T14:57:25.115Z,1.55
2022-08-03T15:00:15.327Z,1.30
2022-08-03T15:06:02.465Z,1.30
2022-08-03T15:09:22.690Z,1.50
2022-08-03T15:11:41.009Z,1.37
2022-08-03T15:17:18.666Z,1.55
2022-08-03T15:20:27.863Z,1.30
2022-08-03T15:23:00.605Z,1.50
2022-08-03T15:28:52.523Z,1.40
2022-08-03T15:31:41.741Z,1.05
2022-08-03T15:34:31.207Z,1.20
2022-08-03T15:40:17.606Z,1.10
2022-08-03T15:43:05.937Z,1.22
2022-08-03T15:46:26.630Z,1.40
2022-08-03T15:51:44.670Z,1.00
2022-08-03T15:54:34.231Z,1.10
2022-08-03T16:00:10.930Z,1.10
2022-08-03T16:05:39.699Z,1.35
2022-08-03T16:08:28.502Z,1.25
2022-08-03T16:14:32.038Z,1.50
2022-08-03T16:19:43.734Z,1.40
2022-08-03T16:25:16.369Z,1.35
2022-08-03T16:30:52.285Z,1.70
2022-08-03T16:36:24.771Z,1.10
2022-08-03T16:39:15.736Z,1.40
2022-08-03T16:44:54.968Z,1.40
2022-08-03T16:47:43.276Z,1.50
2022-08-03T16:50:33.711Z,1.25
2022-08-03T16:58:50.747Z,1.25
2022-08-03T17:04:40.013Z,1.15
2022-08-03T17:07:30.710Z,1.55
2022-08-03T17:10:22.080Z,1.22
2022-08-03T17:13:10.580Z,1.12
2022-08-03T17:18:50.173Z,1.65
2022-08-03T17:24:29.953Z,1.60
2022-08-03T17:32:57.901Z,1.75
2022-08-03T17:38:34.734Z,1.70
2022-08-03T17:44:15.382Z,1.70
2022-08-03T18:16:02.311Z,2.10
2022-08-03T18:22:02.070Z,1.90
2022-08-03T18:24:28.788Z,2.00
2022-08-03T18:35:53.882Z,2.20
2022-08-03T18:41:31.859Z,2.20
2022-08-03T18:47:08.129Z,2.10
2022-08-03T18:52:53.138Z,2.17
2022-08-03T18:58:28.878Z,2.30
2022-08-03T19:04:12.934Z,2.53
2022-08-03T19:07:04.207Z,2.30
2022-08-03T19:09:57.462Z,2.37
2022-08-03T19:15:41.544Z,2.70
2022-08-03T19:21:15.504Z,2.40
2022-08-03T19:24:06.588Z,1.97
2022-08-03T19:30:00.122Z,2.30
2022-08-03T19:32:32.403Z,1.97
2022-08-03T19:38:27.636Z,2.10
2022-08-03T19:53:19.040Z,1.83
2022-08-03T20:08:02.108Z,2.00
2022-08-03T20:10:51.264Z,2.10
2022-08-03T20:16:32.632Z,2.10
2022-08-03T20:19:21.772Z,2.27
2022-08-03T20:22:14.518Z,2.40
2022-08-03T20:28:07.815Z,2.30
2022-08-03T20:36:27.981Z,2.53
2022-08-03T20:42:05.453Z,2.60
2022-08-03T20:47:57.772Z,2.50
2022-08-03T20:57:28.230Z,2.50
2022-08-03T21:03:03.771Z,2.70
2022-08-03T21:05:55.060Z,2.50
2022-08-03T21:08:48.804Z,2.60
2022-08-03T21:13:07.090Z,2.57
2022-08-03T21:14:43.077Z,2.73
2022-08-03T21:17:41.672Z,2.37
2022-08-03T21:23:40.304Z,2.40
2022-08-03T21:29:00.438Z,2.33
2022-08-03T21:31:50.485Z,2.57
2022-08-03T21:37:27.331Z,2.80
2022-08-03T21:43:05.550Z,2.53
2022-08-03T21:50:02.683Z,3.40
2022-08-03T21:54:42.653Z,3.00
2022-08-03T22:00:33.931Z,3.20
2022-08-03T22:06:19.532Z,2.90
2022-08-03T22:11:54.822Z,3.10
2022-08-03T22:17:55.106Z,2.97
2022-08-03T22:23:16.421Z,2.73
2022-08-03T22:26:05.923Z,2.70
2022-08-03T22:31:57.979Z,2.60
2022-08-03T22:34:35.245Z,2.80
2022-08-03T22:37:26.033Z,3.30
2022-08-03T22:40:17.115Z,2.80
2022-08-03T22:43:07.362Z,3.27
2022-08-03T22:46:09.616Z,3.20
2022-08-03T22:54:16.301Z,3.03
2022-08-03T22:57:07.922Z,2.93
2022-08-03T23:02:37.422Z,3.10
2022-08-03T23:06:01.350Z,3.13
2022-08-03T23:08:25.132Z,3.10
2022-08-03T23:14:08.279Z,3.57
2022-08-03T23:16:58.176Z,2.90
2022-08-03T23:19:47.281Z,2.93
2022-08-03T23:25:23.050Z,3.00
2022-08-03T23:28:12.832Z,2.93
2022-08-03T23:33:54.201Z,3.10
2022-08-03T23:36:43.375Z,2.73
2022-08-03T23:42:35.697Z,3.10
2022-08-03T23:51:10.468Z,3.23
2022-08-03T23:56:58.515Z,2.87
